createdAt,value
2022-09-28T00:01:07.844Z,100.00
2022-09-28T00:06:11.803Z,100.00
2022-09-28T00:11:16.232Z,100.00
2022-09-28T00:16:21.604Z,100.00
2022-09-28T00:21:26.086Z,100.00
2022-09-28T00:26:30.143Z,100.00
2022-09-28T00:31:35.542Z,100.00
2022-09-28T00:36:44.937Z,100.00
2022-09-28T00:41:48.860Z,100.00
2022-09-28T00:46:56.382Z,100.00
2022-09-28T00:52:00.155Z,100.00
2022-09-28T00:57:04.202Z,100.00
2022-09-28T01:02:10.501Z,100.00
2022-09-28T01:07:14.600Z,100.00
2022-09-28T01:12:17.494Z,100.00
2022-09-28T01:17:26.584Z,100.00
2022-09-28T01:22:37.190Z,100.00
2022-09-28T01:27:44.259Z,100.00
2022-09-28T01:32:50.978Z,100.00
2022-09-28T01:37:54.913Z,100.00
2022-09-28T01:43:01.980Z,100.00
2022-09-28T01:48:07.317Z,100.00
2022-09-28T01:53:14.773Z,100.00
2022-09-28T01:58:21.640Z,100.00
2022-09-28T02:03:27.117Z,100.00
2022-09-28T02:08:32.575Z,100.00
2022-09-28T02:13:38.583Z,100.00
2022-09-28T02:18:41.727Z,100.00
2022-09-28T02:23:50.977Z,100.00
2022-09-28T02:28:55.280Z,100.00
2022-09-28T02:33:58.643Z,100.00
2022-09-28T02:39:02.420Z,100.00
2022-09-28T02:44:13.355Z,100.00
2022-09-28T02:49:22.703Z,100.00
2022-09-28T02:54:36.562Z,100.00
2022-09-28T02:59:45.638Z,100.00
2022-09-28T03:04:54.919Z,100.00
2022-09-28T03:10:02.671Z,100.00
2022-09-28T03:15:11.958Z,100.00
2022-09-28T03:20:14.942Z,100.00
2022-09-28T03:25:18.182Z,100.00
2022-09-28T03:30:23.052Z,100.00
2022-09-28T03:35:26.079Z,100.00
2022-09-28T03:40:29.002Z,100.00
2022-09-28T03:45:33.387Z,100.00
2022-09-28T03:50:36.384Z,100.00
2022-09-28T03:55:39.384Z,100.00
2022-09-28T04:00:43.954Z,100.00
2022-09-28T04:05:50.258Z,100.00
2022-09-28T04:10:53.371Z,100.00
2022-09-28T04:15:58.708Z,100.00
2022-09-28T04:21:03.662Z,100.00
2022-09-28T04:26:07.541Z,100.00
2022-09-28T04:31:12.842Z,100.00
2022-09-28T04:36:15.946Z,100.00
2022-09-28T04:41:18.853Z,100.00
2022-09-28T04:46:23.146Z,100.00
2022-09-28T04:51:26.042Z,100.00
2022-09-28T04:56:28.950Z,100.00
2022-09-28T05:01:33.260Z,100.00
2022-09-28T05:06:36.270Z,100.00
2022-09-28T05:11:39.201Z,100.00
2022-09-28T05:16:43.559Z,100.00
2022-09-28T05:21:46.992Z,100.00
2022-09-28T05:26:49.928Z,100.00
2022-09-28T05:31:54.255Z,100.00
2022-09-28T05:36:57.209Z,100.00
2022-09-28T05:42:00.152Z,100.00
2022-09-28T05:47:04.450Z,100.00
2022-09-28T05:52:07.381Z,100.00
2022-09-28T05:57:10.518Z,100.00
2022-09-28T06:02:14.930Z,100.00
2022-09-28T06:07:18.018Z,100.00
2022-09-28T06:12:21.049Z,100.00
2022-09-28T06:17:25.492Z,100.00
2022-09-28T06:22:30.542Z,100.00
2022-09-28T06:27:33.560Z,100.00
2022-09-28T06:32:37.939Z,100.00
2022-09-28T06:37:40.886Z,100.00
2022-09-28T06:42:43.870Z,100.00
2022-09-28T06:47:53.267Z,100.00
2022-09-28T06:52:59.786Z,100.00
2022-09-28T06:58:03.631Z,100.00
2022-09-28T07:03:09.106Z,100.00
2022-09-28T07:08:12.623Z,100.00
2022-09-28T07:13:41.107Z,100.00
2022-09-28T07:18:42.206Z,100.00
2022-09-28T07:23:52.467Z,100.00
2022-09-28T07:28:56.616Z,100.00
2022-09-28T07:34:00.943Z,100.00
2022-09-28T07:39:04.055Z,100.00
2022-09-28T07:44:07.145Z,100.00
2022-09-28T07:49:12.798Z,100.00
2022-09-28T07:54:15.771Z,100.00
2022-09-28T07:59:20.397Z,100.00
2022-09-28T08:04:25.441Z,100.00
2022-09-28T08:09:28.412Z,100.00
2022-09-28T08:14:34.031Z,100.00
2022-09-28T08:19:55.952Z,100.00
2022-09-28T08:24:58.952Z,100.00
2022-09-28T08:30:01.887Z,100.00
2022-09-28T08:35:06.995Z,100.00
2022-09-28T08:40:14.446Z,100.00
2022-09-28T08:45:22.148Z,100.00
2022-09-28T08:50:30.006Z,100.00
2022-09-28T08:55:34.727Z,100.00
2022-09-28T09:00:40.958Z,100.00
2022-09-28T09:05:56.141Z,100.00
2022-09-28T09:11:03.566Z,100.00
2022-09-28T09:16:10.299Z,99.83
2022-09-28T09:21:16.134Z,100.00
2022-09-28T09:26:24.999Z,98.33
2022-09-28T09:31:38.299Z,96.47
2022-09-28T09:36:50.171Z,94.98
2022-09-28T09:42:02.432Z,93.08
2022-09-28T09:47:08.197Z,90.65
2022-09-28T09:52:18.563Z,85.49
2022-09-28T09:57:23.788Z,81.40
2022-09-28T10:02:28.360Z,82.91
2022-09-28T10:07:42.590Z,83.50
2022-09-28T10:12:49.515Z,80.97
2022-09-28T10:17:53.011Z,81.08
2022-09-28T10:23:02.103Z,81.62
2022-09-28T10:28:06.528Z,73.64
2022-09-28T10:33:28.030Z,72.09
2022-09-28T10:38:32.911Z,71.91
2022-09-28T10:43:38.728Z,72.06
2022-09-28T10:48:49.463Z,69.74
2022-09-28T10:54:01.863Z,67.85
2022-09-28T10:59:23.428Z,68.17
2022-09-28T11:04:28.607Z,67.65
2022-09-28T11:09:34.687Z,67.73
2022-09-28T11:14:42.423Z,68.82
2022-09-28T11:19:46.167Z,69.79
2022-09-28T11:24:50.616Z,70.91
2022-09-28T11:29:56.755Z,66.60
2022-09-28T11:35:01.170Z,68.08
2022-09-28T11:40:12.925Z,69.93
2022-09-28T11:45:33.270Z,70.49
2022-09-28T11:50:42.341Z,71.29
2022-09-28T11:55:48.439Z,70.83
2022-09-28T12:00:55.682Z,71.61
2022-09-28T12:06:01.152Z,68.93
2022-09-28T12:11:09.835Z,67.08
2022-09-28T12:16:38.975Z,66.77
2022-09-28T12:21:43.994Z,64.95
2022-09-28T12:26:50.995Z,59.38
2022-09-28T12:31:59.233Z,61.62
2022-09-28T12:37:08.427Z,61.00
2022-09-28T12:42:22.406Z,63.46
2022-09-28T12:47:37.916Z,64.06
2022-09-28T12:52:45.395Z,58.99
2022-09-28T12:57:57.416Z,57.15
2022-09-28T13:03:19.182Z,60.11
2022-09-28T13:08:30.262Z,62.88
2022-09-28T13:13:39.771Z,60.09
2022-09-28T13:18:48.607Z,60.85
2022-09-28T13:24:00.770Z,60.13
2022-09-28T13:29:14.688Z,62.17
2022-09-28T13:34:20.619Z,63.15
2022-09-28T13:39:37.487Z,62.99
2022-09-28T13:45:00.312Z,62.33
2022-09-28T13:50:14.242Z,59.77
2022-09-28T13:55:24.975Z,59.99
2022-09-28T14:00:31.468Z,57.76
2022-09-28T14:05:48.625Z,57.96
2022-09-28T14:10:52.722Z,57.98
2022-09-28T14:16:17.196Z,59.21
2022-09-28T14:21:40.317Z,60.57
2022-09-28T14:27:01.766Z,63.62
2022-09-28T14:32:22.175Z,63.33
2022-09-28T14:37:45.634Z,62.71
2022-09-28T14:43:03.458Z,62.65
2022-09-28T14:48:15.781Z,63.65
2022-09-28T14:53:23.961Z,63.86
2022-09-28T14:58:27.637Z,65.25
2022-09-28T15:03:33.443Z,66.16
2022-09-28T15:08:37.408Z,66.92
2022-09-28T15:13:40.856Z,67.81
2022-09-28T15:19:10.713Z,68.63
2022-09-28T15:24:27.284Z,69.66
2022-09-28T15:29:33.445Z,70.88
2022-09-28T15:34:51.889Z,73.99
2022-09-28T15:39:55.809Z,76.52
2022-09-28T15:45:03.493Z,78.09
2022-09-28T15:50:09.302Z,78.69
2022-09-28T15:55:20.397Z,78.97
2022-09-28T16:00:25.373Z,79.20
2022-09-28T16:05:36.021Z,80.61
2022-09-28T16:10:52.001Z,81.20
2022-09-28T16:15:58.224Z,81.25
2022-09-28T16:21:23.029Z,81.80
2022-09-28T16:26:29.914Z,83.35
2022-09-28T16:31:34.749Z,85.12
2022-09-28T16:36:45.851Z,85.50
2022-09-28T16:41:50.619Z,86.59
2022-09-28T16:46:57.466Z,87.70
2022-09-28T16:52:02.499Z,88.01
2022-09-28T16:57:06.562Z,88.66
2022-09-28T17:02:42.250Z,89.10
2022-09-28T17:07:44.289Z,89.47
2022-09-28T17:12:47.644Z,90.04
2022-09-28T17:17:51.214Z,90.67
2022-09-28T17:22:55.545Z,91.15
2022-09-28T17:27:59.134Z,91.01
2022-09-28T17:33:02.089Z,91.94
2022-09-28T17:38:06.372Z,92.78
2022-09-28T17:43:09.391Z,93.58
2022-09-28T17:48:15.833Z,93.35
2022-09-28T17:53:20.112Z,94.71
2022-09-28T17:58:23.825Z,97.67
2022-09-28T18:03:27.005Z,100.00
2022-09-28T18:08:31.957Z,100.00
2022-09-28T18:13:34.960Z,100.00
2022-09-28T18:18:39.866Z,100.00
2022-09-28T18:23:44.275Z,100.00
2022-09-28T18:28:47.610Z,100.00
2022-09-28T18:33:50.704Z,100.00
2022-09-28T18:38:55.311Z,100.00
2022-09-28T18:44:00.938Z,100.00
2022-09-28T18:49:04.625Z,100.00
2022-09-28T18:54:09.066Z,100.00
2022-09-28T18:59:12.609Z,100.00
2022-09-28T19:04:15.909Z,100.00
2022-09-28T19:09:21.870Z,100.00
2022-09-28T19:14:25.094Z,100.00
2022-09-28T19:19:29.179Z,100.00
2022-09-28T19:24:33.787Z,100.00
2022-09-28T19:29:36.686Z,100.00
2022-09-28T19:34:39.776Z,100.00
2022-09-28T19:39:45.396Z,100.00
2022-09-28T19:44:48.351Z,100.00
2022-09-28T19:49:51.313Z,100.00
2022-09-28T19:54:56.818Z,100.00
2022-09-28T20:00:03.213Z,100.00
2022-09-28T20:05:06.910Z,100.00
2022-09-28T20:10:12.247Z,100.00
2022-09-28T20:15:16.683Z,100.00
2022-09-28T20:20:19.715Z,100.00
2022-09-28T20:25:24.160Z,100.00
2022-09-28T20:30:28.822Z,100.00
2022-09-28T20:35:33.377Z,100.00
2022-09-28T20:40:40.938Z,100.00
2022-09-28T20:45:44.033Z,100.00
2022-09-28T20:50:47.024Z,100.00
2022-09-28T20:55:57.696Z,100.00
2022-09-28T21:01:04.851Z,100.00
2022-09-28T21:06:12.160Z,100.00
2022-09-28T21:11:17.567Z,100.00
2022-09-28T21:16:20.827Z,100.00
2022-09-28T21:21:24.401Z,100.00
2022-09-28T21:26:30.839Z,100.00
2022-09-28T21:31:38.092Z,100.00
2022-09-28T21:36:41.245Z,100.00
2022-09-28T21:41:45.690Z,100.00
2022-09-28T21:46:48.963Z,100.00
2022-09-28T21:51:52.616Z,100.00
2022-09-28T21:56:56.997Z,100.00
2022-09-28T22:02:00.095Z,100.00
2022-09-28T22:07:04.306Z,100.00
2022-09-28T22:12:08.856Z,100.00
2022-09-28T22:17:11.845Z,100.00
2022-09-28T22:22:14.849Z,100.00
2022-09-28T22:27:19.147Z,100.00
2022-09-28T22:32:23.851Z,100.00
2022-09-28T22:37:28.103Z,100.00
2022-09-28T22:42:32.759Z,100.00
2022-09-28T22:47:35.721Z,100.00
2022-09-28T22:52:38.675Z,100.00
2022-09-28T22:57:42.943Z,100.00
2022-09-28T23:02:45.896Z,100.00
2022-09-28T23:07:48.875Z,100.00
2022-09-28T23:12:53.961Z,100.00
2022-09-28T23:17:56.914Z,100.00
2022-09-28T23:22:59.810Z,100.00
2022-09-28T23:28:04.119Z,100.00
2022-09-28T23:33:07.261Z,100.00
2022-09-28T23:38:12.014Z,100.00
2022-09-28T23:43:16.620Z,100.00
2022-09-28T23:48:19.749Z,100.00
2022-09-28T23:53:22.715Z,100.00
2022-09-28T23:58:27.584Z,100.00
